Louisville, Kentucky
Current Conditions -  °F | °C
As of 7:56 PM on Friday 24 Oct 2014 (Local Time) from KSDF Reporting Station
Scattered Clouds Scattered Clouds  
Wind Chill: 60°   Ceiling: Unl
Heat Index: 60°   Visibility: 10mi
Dew Point: 46°   Wind: 6mph
Humidity: 60%   Direction: 180°S
Pressure: 30.06"   Gusts: NA
Location:  38.25°N, 85.77°W
Report Text: KSDF 242356Z 18005KT 10SM SCT250 16/08 A3006 RMK AO2 SLP178 T01560078 10200 20156 53002
Loading
Personal Weather Stations






























Interactive Weather Map New forecast layout! Learn more

10-Day Weather Forecast

Advertisements
Track Severe Weather on mobile